createdAt,value
2023-02-15T00:00:13.194Z,4.90
2023-02-15T00:02:41.815Z,4.80
2023-02-15T00:05:10.927Z,4.80
2023-02-15T00:07:40.519Z,4.80
2023-02-15T00:10:09.752Z,4.80
2023-02-15T00:12:37.991Z,4.80
2023-02-15T00:15:06.597Z,4.80
2023-02-15T00:17:34.817Z,4.80
2023-02-15T00:20:03.210Z,4.80
2023-02-15T00:22:31.414Z,4.80
2023-02-15T00:25:01.096Z,4.80
2023-02-15T00:27:29.280Z,4.80
2023-02-15T00:29:57.526Z,4.80
2023-02-15T00:32:25.743Z,4.80
2023-02-15T00:34:53.927Z,4.70
2023-02-15T00:37:22.223Z,4.70
2023-02-15T00:39:50.397Z,4.70
2023-02-15T00:42:20.011Z,4.70
2023-02-15T00:44:48.218Z,4.60
2023-02-15T00:47:16.410Z,4.50
2023-02-15T00:49:44.664Z,4.50
2023-02-15T00:52:12.838Z,4.40
2023-02-15T00:54:41.014Z,4.40
2023-02-15T00:57:09.237Z,4.30
2023-02-15T00:59:38.832Z,4.30
2023-02-15T01:02:07.231Z,4.30
2023-02-15T01:04:35.625Z,4.30
2023-02-15T01:07:04.645Z,4.30
2023-02-15T01:09:32.857Z,4.20
2023-02-15T01:12:01.004Z,4.20
2023-02-15T01:14:29.243Z,4.30
2023-02-15T01:16:58.923Z,4.30
2023-02-15T01:19:27.150Z,4.30
2023-02-15T01:21:55.336Z,4.30
2023-02-15T01:24:23.548Z,4.30
2023-02-15T01:26:51.725Z,4.30
2023-02-15T01:29:20.039Z,4.30
2023-02-15T01:31:48.265Z,4.30
2023-02-15T01:34:17.876Z,4.30
2023-02-15T01:36:46.067Z,4.30
2023-02-15T01:39:14.261Z,4.30
2023-02-15T01:41:42.475Z,4.40
2023-02-15T01:44:43.892Z,4.40
2023-02-15T01:47:14.774Z,4.40
2023-02-15T01:49:46.873Z,4.40
2023-02-15T01:52:19.126Z,4.50
2023-02-15T01:54:49.236Z,4.50
2023-02-15T01:57:21.485Z,4.50
2023-02-15T01:59:55.002Z,4.50
2023-02-15T02:02:25.331Z,4.40
2023-02-15T02:04:57.897Z,4.50
2023-02-15T02:07:30.356Z,4.50
2023-02-15T02:09:58.568Z,4.50
2023-02-15T02:12:28.129Z,4.50
2023-02-15T02:14:57.129Z,4.50
2023-02-15T02:17:40.310Z,4.50
2023-02-15T02:20:32.273Z,4.40
2023-02-15T02:23:27.084Z,4.40
2023-02-15T02:26:39.216Z,4.40
2023-02-15T02:29:42.930Z,4.40
2023-02-15T02:32:46.584Z,4.40
2023-02-15T02:35:21.024Z,4.30
2023-02-15T02:37:55.718Z,4.30
2023-02-15T02:40:33.191Z,4.30
2023-02-15T02:43:07.717Z,4.30
2023-02-15T02:45:43.560Z,4.30
2023-02-15T02:48:17.527Z,4.30
2023-02-15T02:50:47.176Z,4.30
2023-02-15T02:53:15.395Z,4.30
2023-02-15T02:55:46.641Z,4.30
2023-02-15T02:58:19.378Z,4.30
2023-02-15T03:00:51.478Z,4.40
2023-02-15T03:03:28.165Z,4.40
2023-02-15T03:06:01.886Z,4.40
2023-02-15T03:08:37.804Z,4.30
2023-02-15T03:11:06.897Z,4.30
2023-02-15T03:13:36.174Z,4.30
2023-02-15T03:16:24.665Z,4.30
2023-02-15T03:18:58.151Z,4.30
2023-02-15T03:21:35.271Z,4.30
2023-02-15T03:24:08.316Z,4.30
2023-02-15T03:26:38.289Z,4.30
2023-02-15T03:29:08.627Z,4.40
2023-02-15T03:31:42.673Z,4.40
2023-02-15T03:34:13.600Z,4.40
2023-02-15T03:36:48.714Z,4.30
2023-02-15T03:39:23.009Z,4.30
2023-02-15T03:41:58.886Z,4.30
2023-02-15T03:44:31.515Z,4.30
2023-02-15T03:47:06.517Z,4.20
2023-02-15T03:49:43.317Z,4.20
2023-02-15T03:52:15.278Z,4.20
2023-02-15T03:54:44.538Z,4.20
2023-02-15T03:57:33.402Z,4.20
2023-02-15T04:00:21.648Z,4.30
2023-02-15T04:03:07.045Z,4.30
2023-02-15T04:05:35.427Z,4.30
2023-02-15T04:08:05.412Z,4.30
2023-02-15T04:10:50.961Z,4.30
2023-02-15T04:13:19.149Z,4.30
2023-02-15T04:16:05.364Z,4.30
2023-02-15T04:18:52.813Z,4.30
2023-02-15T04:21:39.601Z,4.20
2023-02-15T04:24:27.239Z,4.20
2023-02-15T04:26:55.505Z,4.20
2023-02-15T04:29:24.775Z,4.20
2023-02-15T04:31:53.504Z,4.20
2023-02-15T04:34:21.791Z,4.20
2023-02-15T04:36:51.219Z,4.20
2023-02-15T04:39:21.427Z,4.20
2023-02-15T04:41:49.861Z,4.20
2023-02-15T04:44:18.228Z,4.20
2023-02-15T04:46:46.565Z,4.30
2023-02-15T04:49:14.902Z,4.20
2023-02-15T04:51:43.120Z,4.20
2023-02-15T04:54:11.472Z,4.20
2023-02-15T04:56:41.534Z,4.20
2023-02-15T04:59:12.282Z,4.20
2023-02-15T05:01:40.900Z,4.20
2023-02-15T05:04:09.331Z,4.10
2023-02-15T05:06:37.617Z,4.10
2023-02-15T05:09:05.907Z,4.10
2023-02-15T05:11:35.250Z,4.10
2023-02-15T05:14:05.006Z,4.10
2023-02-15T05:16:33.340Z,4.10
2023-02-15T05:19:02.004Z,4.10
2023-02-15T05:21:30.289Z,4.10
2023-02-15T05:23:58.517Z,4.10
2023-02-15T05:26:44.694Z,4.10
2023-02-15T05:29:14.315Z,4.10
2023-02-15T05:31:43.142Z,4.10
2023-02-15T05:34:11.532Z,4.10
2023-02-15T05:36:39.762Z,4.20
2023-02-15T05:39:09.393Z,4.20
2023-02-15T05:41:37.574Z,4.20
2023-02-15T05:44:06.431Z,4.20
2023-02-15T05:46:36.144Z,4.20
2023-02-15T05:49:04.328Z,4.20
2023-02-15T05:51:32.607Z,4.10
2023-02-15T05:54:06.737Z,4.10
2023-02-15T05:56:35.211Z,4.10
2023-02-15T05:59:03.607Z,4.10
2023-02-15T06:01:31.942Z,4.10
2023-02-15T06:04:01.597Z,4.10
2023-02-15T06:06:29.839Z,4.20
2023-02-15T06:08:58.120Z,4.20
2023-02-15T06:11:26.340Z,4.20
2023-02-15T06:13:54.599Z,4.20
2023-02-15T06:16:22.998Z,4.20
2023-02-15T06:18:53.648Z,4.20
2023-02-15T06:21:23.439Z,4.20
2023-02-15T06:23:51.643Z,4.20
2023-02-15T06:26:19.886Z,4.10
2023-02-15T06:28:48.101Z,4.10
2023-02-15T06:31:16.396Z,4.10
2023-02-15T06:33:44.670Z,4.10
2023-02-15T06:36:13.591Z,4.10
2023-02-15T06:38:43.271Z,4.10
2023-02-15T06:41:11.447Z,4.10
2023-02-15T06:43:41.021Z,4.20
2023-02-15T06:46:09.390Z,4.10
2023-02-15T06:48:37.602Z,4.10
2023-02-15T06:51:05.855Z,4.10
2023-02-15T06:53:34.647Z,4.10
2023-02-15T06:56:07.826Z,4.10
2023-02-15T06:58:35.895Z,4.10
2023-02-15T07:01:04.421Z,4.10
2023-02-15T07:03:33.661Z,4.10
2023-02-15T07:06:04.253Z,4.10
2023-02-15T07:08:32.623Z,4.10
2023-02-15T07:11:20.923Z,4.10
2023-02-15T07:13:49.513Z,4.10
2023-02-15T07:16:18.158Z,4.20
2023-02-15T07:18:46.376Z,4.20
2023-02-15T07:21:14.776Z,4.20
2023-02-15T07:23:43.273Z,4.20
2023-02-15T07:26:11.546Z,4.20
2023-02-15T07:28:39.828Z,4.20
2023-02-15T07:31:09.634Z,4.20
2023-02-15T07:33:38.069Z,4.20
2023-02-15T07:36:07.384Z,4.20
2023-02-15T07:38:37.561Z,4.20
2023-02-15T07:41:07.823Z,4.20
2023-02-15T07:43:37.509Z,4.20
2023-02-15T07:46:10.069Z,4.20
2023-02-15T07:48:39.250Z,4.20
2023-02-15T07:51:09.799Z,4.20
2023-02-15T07:53:38.631Z,4.20
2023-02-15T07:56:09.798Z,4.20
2023-02-15T07:58:53.691Z,4.30
2023-02-15T08:01:25.126Z,4.30
2023-02-15T08:03:54.517Z,4.20
2023-02-15T08:06:23.449Z,4.30
2023-02-15T08:08:51.688Z,4.30
2023-02-15T08:11:30.175Z,4.30
2023-02-15T08:14:01.509Z,4.30
2023-02-15T08:16:33.496Z,4.30
2023-02-15T08:19:03.407Z,4.30
2023-02-15T08:21:32.871Z,4.30
2023-02-15T08:24:01.505Z,4.30
2023-02-15T08:26:30.787Z,4.30
2023-02-15T08:28:59.768Z,4.30
2023-02-15T08:31:28.953Z,4.30
2023-02-15T08:33:59.113Z,4.30
2023-02-15T08:36:29.726Z,4.30
2023-02-15T08:38:59.883Z,4.40
2023-02-15T08:41:30.550Z,4.40
2023-02-15T08:44:00.528Z,4.40
2023-02-15T08:46:30.493Z,4.40
2023-02-15T08:49:00.657Z,4.40
2023-02-15T08:51:30.376Z,4.50
2023-02-15T08:53:59.843Z,4.50
2023-02-15T08:56:30.093Z,4.50
2023-02-15T08:58:58.584Z,4.50
2023-02-15T09:01:29.175Z,4.50
2023-02-15T09:04:01.057Z,4.50
2023-02-15T09:06:30.043Z,4.50
2023-02-15T09:08:59.275Z,4.50
2023-02-15T09:11:29.330Z,4.60
2023-02-15T09:13:58.829Z,4.60
2023-02-15T09:16:30.495Z,4.60
2023-02-15T09:19:02.143Z,4.60
2023-02-15T09:21:31.440Z,4.70
2023-02-15T09:24:02.056Z,4.70
2023-02-15T09:26:32.343Z,4.70
2023-02-15T09:29:02.486Z,4.70
2023-02-15T09:31:32.432Z,4.70
2023-02-15T09:34:02.988Z,4.80
2023-02-15T09:36:33.421Z,4.80
2023-02-15T09:39:07.023Z,4.80
2023-02-15T09:41:51.862Z,4.80
2023-02-15T09:44:26.302Z,4.80
2023-02-15T09:47:10.521Z,4.90
2023-02-15T09:49:50.148Z,4.90
2023-02-15T09:52:37.581Z,4.90
2023-02-15T09:55:34.770Z,4.90
2023-02-15T09:58:13.981Z,4.90
2023-02-15T10:00:51.800Z,4.90
2023-02-15T10:03:32.657Z,5.00
2023-02-15T10:06:27.104Z,5.00
2023-02-15T10:09:07.813Z,5.00
2023-02-15T10:11:52.254Z,5.00
2023-02-15T10:14:40.517Z,5.10
2023-02-15T10:17:31.598Z,5.10
2023-02-15T10:20:12.162Z,5.10
2023-02-15T10:23:00.214Z,5.10
2023-02-15T10:25:40.182Z,5.10
2023-02-15T10:28:14.056Z,5.20
2023-02-15T10:30:49.141Z,5.20
2023-02-15T10:33:36.472Z,5.20
2023-02-15T10:36:24.037Z,5.20
2023-02-15T10:39:03.702Z,5.20
2023-02-15T10:41:42.611Z,5.30
2023-02-15T10:44:22.010Z,5.30
2023-02-15T10:47:05.487Z,5.30
2023-02-15T10:49:43.461Z,5.40
2023-02-15T10:52:27.249Z,5.40
2023-02-15T10:55:10.156Z,5.40
2023-02-15T10:57:48.956Z,5.40
2023-02-15T11:00:23.804Z,5.40
2023-02-15T11:03:14.849Z,5.40
2023-02-15T11:05:50.169Z,5.40
2023-02-15T11:08:19.817Z,5.40
2023-02-15T11:10:53.141Z,5.40
2023-02-15T11:13:24.584Z,5.50
2023-02-15T11:15:55.948Z,5.50
2023-02-15T11:18:30.346Z,5.60
2023-02-15T11:21:04.234Z,5.60
2023-02-15T11:23:34.641Z,5.60
2023-02-15T11:26:07.000Z,5.60
2023-02-15T11:28:41.466Z,5.70
2023-02-15T11:31:18.086Z,5.70
2023-02-15T11:33:51.349Z,5.70
2023-02-15T11:36:21.614Z,5.70
2023-02-15T11:38:57.202Z,5.70
2023-02-15T11:41:33.652Z,5.70
2023-02-15T11:44:08.693Z,5.70
2023-02-15T11:46:38.603Z,5.80
2023-02-15T11:49:23.189Z,5.80
2023-02-15T11:51:52.824Z,5.70
2023-02-15T11:54:26.184Z,5.70
2023-02-15T11:56:57.559Z,5.70
2023-02-15T11:59:33.357Z,5.70
2023-02-15T12:02:03.961Z,5.70
2023-02-15T12:04:36.834Z,5.70
2023-02-15T12:07:17.673Z,5.80
2023-02-15T12:09:53.088Z,5.70
2023-02-15T12:12:29.302Z,5.70
2023-02-15T12:14:59.173Z,5.80
2023-02-15T12:17:30.982Z,5.70
2023-02-15T12:20:03.313Z,5.70
2023-02-15T12:22:37.047Z,5.70
2023-02-15T12:25:21.868Z,5.70
2023-02-15T12:27:52.480Z,5.70
2023-02-15T12:30:25.291Z,5.70
2023-02-15T12:32:55.815Z,5.70
2023-02-15T12:35:31.769Z,5.70
2023-02-15T12:38:05.484Z,5.70
2023-02-15T12:40:38.726Z,5.70
2023-02-15T12:43:30.329Z,5.70
2023-02-15T12:46:16.793Z,5.70
2023-02-15T12:48:45.720Z,5.60
2023-02-15T12:51:17.516Z,5.60
2023-02-15T12:53:47.541Z,5.60
2023-02-15T12:56:28.610Z,5.70
2023-02-15T12:59:09.890Z,5.60
2023-02-15T13:01:38.422Z,5.60
2023-02-15T13:04:08.396Z,5.70
2023-02-15T13:06:38.806Z,5.70
2023-02-15T13:09:16.128Z,5.70
2023-02-15T13:11:45.974Z,5.70
2023-02-15T13:14:22.848Z,5.70
2023-02-15T13:16:54.142Z,5.70
2023-02-15T13:19:30.691Z,5.80
2023-02-15T13:22:02.384Z,5.70
2023-02-15T13:24:35.897Z,5.80
2023-02-15T13:27:14.912Z,5.80
2023-02-15T13:29:48.851Z,5.80
2023-02-15T13:32:27.464Z,5.70
2023-02-15T13:34:59.187Z,5.70
2023-02-15T13:37:46.348Z,5.80
2023-02-15T13:40:20.622Z,5.80
2023-02-15T13:42:55.538Z,5.80
2023-02-15T13:45:35.850Z,5.80
2023-02-15T13:48:15.879Z,5.80
2023-02-15T13:51:01.615Z,5.80
2023-02-15T13:53:48.921Z,5.80
2023-02-15T13:56:22.866Z,5.80
2023-02-15T13:59:22.298Z,5.80
2023-02-15T14:01:57.905Z,5.80
2023-02-15T14:04:42.464Z,5.70
2023-02-15T14:07:31.232Z,5.70
2023-02-15T14:10:14.388Z,5.70
2023-02-15T14:12:56.940Z,5.70
2023-02-15T14:15:37.286Z,5.70
2023-02-15T14:18:19.225Z,5.70
2023-02-15T14:20:58.601Z,5.70
2023-02-15T14:23:40.528Z,5.70
2023-02-15T14:26:14.181Z,5.70
2023-02-15T14:28:49.991Z,5.70
2023-02-15T14:31:31.139Z,5.70
2023-02-15T14:34:01.263Z,5.70
2023-02-15T14:36:31.623Z,5.70
2023-02-15T14:39:34.927Z,5.70
2023-02-15T14:42:10.429Z,5.70
2023-02-15T14:44:44.556Z,5.70
2023-02-15T14:47:18.756Z,5.80
2023-02-15T14:49:48.372Z,5.80
2023-02-15T14:52:16.648Z,5.80
2023-02-15T14:55:01.422Z,5.90
2023-02-15T14:57:36.068Z,5.90
2023-02-15T15:00:39.233Z,5.90
2023-02-15T15:03:21.087Z,5.90
2023-02-15T15:05:54.405Z,5.90
2023-02-15T15:08:35.166Z,5.90
2023-02-15T15:11:43.478Z,5.80
2023-02-15T15:14:13.608Z,5.80
2023-02-15T15:16:52.760Z,5.90
2023-02-15T15:20:00.808Z,5.90
2023-02-15T15:22:31.915Z,5.90
2023-02-15T15:25:03.760Z,5.90
2023-02-15T15:27:55.726Z,5.90
2023-02-15T15:30:49.611Z,5.90
2023-02-15T15:33:46.526Z,5.90
2023-02-15T15:36:57.535Z,5.90
2023-02-15T15:39:59.559Z,5.90
2023-02-15T15:42:39.232Z,6.00
2023-02-15T15:45:36.075Z,6.00
2023-02-15T15:48:25.814Z,6.00
2023-02-15T15:50:59.846Z,6.00
2023-02-15T15:53:31.375Z,6.00
2023-02-15T15:56:05.939Z,6.00
2023-02-15T15:58:36.332Z,6.00
2023-02-15T16:01:10.137Z,6.00
2023-02-15T16:03:38.370Z,6.00
2023-02-15T16:06:07.249Z,6.00
2023-02-15T16:08:37.874Z,6.00
2023-02-15T16:11:16.430Z,6.00
2023-02-15T16:13:45.563Z,6.00
2023-02-15T16:16:15.800Z,6.00
2023-02-15T16:18:44.506Z,6.10
2023-02-15T16:21:20.639Z,6.10
2023-02-15T16:24:08.846Z,6.10
2023-02-15T16:27:13.016Z,6.00
2023-02-15T16:29:41.472Z,6.10
2023-02-15T16:32:19.766Z,6.10
2023-02-15T16:34:55.810Z,6.10
2023-02-15T16:37:27.906Z,6.10
2023-02-15T16:39:57.297Z,6.10
2023-02-15T16:42:27.615Z,6.10
2023-02-15T16:45:01.316Z,6.20
2023-02-15T16:47:33.561Z,6.20
2023-02-15T16:50:05.033Z,6.20
2023-02-15T16:52:33.533Z,6.10
2023-02-15T16:55:04.836Z,6.10
2023-02-15T16:57:37.359Z,6.10
2023-02-15T17:00:08.322Z,6.00
2023-02-15T17:02:55.066Z,6.00
2023-02-15T17:05:25.007Z,6.00
2023-02-15T17:08:05.637Z,5.90
2023-02-15T17:10:37.270Z,5.90
2023-02-15T17:13:12.838Z,5.90
2023-02-15T17:15:42.944Z,5.80
2023-02-15T17:18:17.772Z,5.80
2023-02-15T17:20:47.422Z,5.80
2023-02-15T17:23:30.903Z,5.80
2023-02-15T17:25:59.271Z,5.80
2023-02-15T17:28:33.172Z,5.80
2023-02-15T17:31:02.129Z,5.80
2023-02-15T17:33:40.395Z,5.80
2023-02-15T17:36:11.717Z,5.70
2023-02-15T17:38:41.472Z,5.70
2023-02-15T17:41:09.879Z,5.70
2023-02-15T17:43:39.524Z,5.70
2023-02-15T17:46:07.899Z,5.70
2023-02-15T17:48:38.121Z,5.60
2023-02-15T17:51:09.967Z,5.60
2023-02-15T17:53:39.153Z,5.60
2023-02-15T17:56:10.521Z,5.60
2023-02-15T17:58:42.269Z,5.60
2023-02-15T18:01:36.308Z,5.60
2023-02-15T18:04:22.376Z,5.50
2023-02-15T18:07:09.315Z,5.60
2023-02-15T18:09:54.952Z,5.60
2023-02-15T18:12:26.170Z,5.60
2023-02-15T18:14:56.809Z,5.60
2023-02-15T18:17:30.182Z,5.60
2023-02-15T18:19:58.553Z,5.60
2023-02-15T18:22:29.524Z,5.50
2023-02-15T18:24:58.062Z,5.50
2023-02-15T18:27:26.470Z,5.50
2023-02-15T18:29:56.151Z,5.50
2023-02-15T18:32:32.099Z,5.40
2023-02-15T18:35:00.860Z,5.50
2023-02-15T18:37:33.146Z,5.50
2023-02-15T18:40:04.201Z,5.40
2023-02-15T18:42:34.383Z,5.40
2023-02-15T18:45:15.248Z,5.40
2023-02-15T18:47:43.514Z,5.40
2023-02-15T18:50:12.769Z,5.40
2023-02-15T18:52:41.905Z,5.40
2023-02-15T18:55:18.985Z,5.30
2023-02-15T18:57:48.019Z,5.30
2023-02-15T19:00:20.602Z,5.30
2023-02-15T19:02:49.315Z,5.30
2023-02-15T19:05:18.454Z,5.40
2023-02-15T19:07:48.621Z,5.40
2023-02-15T19:10:19.758Z,5.30
2023-02-15T19:12:49.272Z,5.40
2023-02-15T19:15:21.967Z,5.30
2023-02-15T19:17:52.006Z,5.40
2023-02-15T19:20:22.487Z,5.40
2023-02-15T19:22:52.725Z,5.40
2023-02-15T19:25:23.333Z,5.40
2023-02-15T19:27:52.696Z,5.40
2023-02-15T19:30:27.132Z,5.40
2023-02-15T19:32:55.413Z,5.40
2023-02-15T19:35:26.615Z,5.40
2023-02-15T19:37:57.664Z,5.40
2023-02-15T19:40:28.557Z,5.40
2023-02-15T19:42:57.588Z,5.40
2023-02-15T19:45:28.892Z,5.40
2023-02-15T19:47:57.270Z,5.40
2023-02-15T19:50:27.672Z,5.40
2023-02-15T19:52:56.464Z,5.40
2023-02-15T19:55:27.277Z,5.40
2023-02-15T19:57:56.688Z,5.40
2023-02-15T20:00:28.504Z,5.40
2023-02-15T20:02:59.399Z,5.40
2023-02-15T20:05:29.332Z,5.40
2023-02-15T20:07:58.207Z,5.40
2023-02-15T20:10:29.056Z,5.40
2023-02-15T20:12:59.757Z,5.40
2023-02-15T20:15:31.447Z,5.40
2023-02-15T20:18:02.176Z,5.40
2023-02-15T20:20:34.548Z,5.40
2023-02-15T20:23:02.828Z,5.40
2023-02-15T20:25:34.221Z,5.40
2023-02-15T20:28:03.456Z,5.40
2023-02-15T20:30:34.058Z,5.40
2023-02-15T20:33:02.415Z,5.40
2023-02-15T20:35:30.888Z,5.40
2023-02-15T20:38:01.259Z,5.40
2023-02-15T20:40:32.658Z,5.40
2023-02-15T20:43:01.359Z,5.40
2023-02-15T20:45:33.110Z,5.40
2023-02-15T20:48:02.313Z,5.40
2023-02-15T20:50:33.682Z,5.40
2023-02-15T20:53:03.290Z,5.40
2023-02-15T20:55:33.491Z,5.40
2023-02-15T20:58:01.811Z,5.40
2023-02-15T21:00:33.334Z,5.40
2023-02-15T21:03:02.930Z,5.40
2023-02-15T21:05:33.716Z,5.40
2023-02-15T21:08:02.474Z,5.40
2023-02-15T21:10:33.171Z,5.40
2023-02-15T21:13:04.057Z,5.30
2023-02-15T21:15:35.428Z,5.40
2023-02-15T21:18:07.231Z,5.40
2023-02-15T21:20:37.045Z,5.40
2023-02-15T21:23:07.577Z,5.40
2023-02-15T21:25:37.808Z,5.40
2023-02-15T21:28:08.400Z,5.40
2023-02-15T21:30:38.100Z,5.40
2023-02-15T21:33:07.518Z,5.40
2023-02-15T21:35:37.715Z,5.40
2023-02-15T21:38:07.439Z,5.40
2023-02-15T21:40:35.842Z,5.40
2023-02-15T21:43:21.664Z,5.40
2023-02-15T21:46:09.022Z,5.40
2023-02-15T21:48:37.374Z,5.40
2023-02-15T21:51:23.765Z,5.40
2023-02-15T21:53:52.048Z,5.30
2023-02-15T21:56:22.057Z,5.30
2023-02-15T21:58:50.307Z,5.30
2023-02-15T22:01:23.750Z,5.30
2023-02-15T22:03:52.186Z,5.30
2023-02-15T22:06:20.783Z,5.30
2023-02-15T22:08:49.099Z,5.30
2023-02-15T22:11:20.344Z,5.30
2023-02-15T22:13:49.252Z,5.20
2023-02-15T22:16:21.281Z,5.30
2023-02-15T22:18:50.307Z,5.30
2023-02-15T22:21:19.302Z,5.30
2023-02-15T22:23:48.300Z,5.30
2023-02-15T22:26:22.438Z,5.30
2023-02-15T22:28:51.131Z,5.20
2023-02-15T22:31:23.434Z,5.30
2023-02-15T22:33:51.727Z,5.30
2023-02-15T22:36:24.898Z,5.20
2023-02-15T22:38:53.271Z,5.30
2023-02-15T22:41:22.542Z,5.30
2023-02-15T22:43:51.079Z,5.30
2023-02-15T22:46:23.561Z,5.30
2023-02-15T22:48:52.518Z,5.30
2023-02-15T22:51:23.450Z,5.30
2023-02-15T22:53:53.804Z,5.30
2023-02-15T22:56:27.200Z,5.30
2023-02-15T22:59:00.766Z,5.30
2023-02-15T23:01:33.792Z,5.30
2023-02-15T23:04:03.976Z,5.30
2023-02-15T23:06:32.782Z,5.30
2023-02-15T23:09:01.392Z,5.30
2023-02-15T23:11:29.878Z,5.30
2023-02-15T23:13:58.132Z,5.30
2023-02-15T23:16:26.388Z,5.40
2023-02-15T23:18:55.991Z,5.30
2023-02-15T23:21:26.685Z,5.30
2023-02-15T23:23:58.620Z,5.30
2023-02-15T23:26:28.857Z,5.30
2023-02-15T23:28:58.936Z,5.30
2023-02-15T23:31:30.349Z,5.20
2023-02-15T23:34:02.558Z,5.20
2023-02-15T23:36:32.440Z,5.20
2023-02-15T23:39:25.985Z,5.20
2023-02-15T23:41:53.239Z,5.10
2023-02-15T23:44:21.467Z,5.10
2023-02-15T23:46:51.087Z,5.10
2023-02-15T23:49:21.494Z,5.00
2023-02-15T23:51:51.830Z,5.00
2023-02-15T23:54:21.811Z,5.00
2023-02-15T23:56:52.494Z,5.00
2023-02-15T23:59:24.149Z,5.00
